Glenwood, MN

3:48 PM CDT on October 22, 2017 (GMT -0500)
Glenwood Municipal

Weather History for KGHW - March, 2014

Change the Weather History Date:

Saturday, March 1, 2014

  Actual Average Record
Temperature  
Mean Temperature -12 °F -  
Max Temperature -7 °F 33 °F 60 °F (1990)
Min Temperature -16 °F 14 °F -31 °F (1962)
Degree Days  
Heating Degree Days 76    
Moisture  
Dew Point -20 °F    
Average Humidity 64    
Maximum Humidity 77    
Minimum Humidity 49    
Precipitation  
Precipitation 0.00 in - - ()
Sea Level Pressure  
Sea Level Pressure 30.41 in    
Wind  
Wind Speed 13 mph (NW)    
Max Wind Speed 20 mph    
Max Gust Speed 22 mph    
Visibility 10 miles    
Events      
Averages and records for this station are not official NWS values.
T = Trace of Precipitation, MM = Missing Value Source: NWS Daily Summary

Daily Weather History Graph

Daily Weather History Graph

Search for Another Location

Airport or City:

Trip Planner

Search our weather history database for the weather conditions in past years. The results will help you decide how hot, cold, wet, or windy it might be!

Date:

Astronomy

Mar. 01, 2014 Rise Set
Actual Time 6:59 AM CST 6:08 PM CST
Civil Twilight 6:29 AM CST 6:38 PM CST
Nautical Twilight 5:55 AM CST 7:12 PM CST
Astronomical Twilight 5:21 AM CST 7:46 PM CST
Moon 6:51 AM CST (3/1) 7:01 PM CST (3/1)
Length of Visible Light 12h 08m
Length of Day
11h 08m
New Moon, 0% of the Moon is Illuminated
Mar 1
New Moon
Mar 8
First Quarter
Mar 16
Full
Mar 23
Last Quarter
Mar 30
New

Hourly Weather History & Observations

Time (CST) Temp. Windchill Dew Point Humidity Pressure Visibility Wind Dir Wind Speed Gust Speed Precip Events Conditions
12:13 AM -7.6 °F -25.7 °F -13.0 °F 77% 30.23 in 10.0 mi NW 10.4 mph - N/A   Clear
12:33 AM -7.6 °F -26.6 °F -13.0 °F 77% 30.23 in 10.0 mi NW 11.5 mph - N/A   Clear
12:54 AM -7.6 °F -26.6 °F -14.8 °F 71% 30.24 in 10.0 mi NW 11.5 mph - N/A   Clear
1:13 AM -9.4 °F -25.6 °F -14.8 °F 77% 30.25 in 10.0 mi NW 8.1 mph - N/A   Clear
1:33 AM -9.4 °F -27.9 °F -14.8 °F 77% 30.26 in 10.0 mi NW 10.4 mph - N/A   Clear
1:54 AM -7.6 °F -27.5 °F -14.8 °F 71% 30.27 in 10.0 mi NW 12.7 mph - N/A   Clear
2:13 AM -7.6 °F -26.6 °F -14.8 °F 71% 30.27 in 10.0 mi NW 11.5 mph - N/A   Clear
2:34 AM -9.4 °F -30.6 °F -14.8 °F 77% 30.28 in 10.0 mi NNW 13.8 mph - N/A   Clear
2:53 AM -9.4 °F -30.6 °F -16.6 °F 71% 30.28 in 10.0 mi NNW 13.8 mph - N/A   Clear
3:13 AM -9.4 °F -28.9 °F -16.6 °F 71% 30.27 in 10.0 mi NNW 11.5 mph - N/A   Clear
3:34 AM -9.4 °F -29.8 °F -16.6 °F 71% 30.28 in 10.0 mi NNW 12.7 mph - N/A   Clear
3:53 AM -9.4 °F -29.8 °F -16.6 °F 71% 30.30 in 10.0 mi NW 12.7 mph - N/A   Clear
4:13 AM -9.4 °F -29.8 °F -18.4 °F 65% 30.30 in 10.0 mi NNW 12.7 mph - N/A   Clear
4:33 AM -11.2 °F -31.1 °F -18.4 °F 70% 30.31 in 10.0 mi NW 11.5 mph - N/A   Clear
4:53 AM -11.2 °F -32.1 °F -18.4 °F 70% 30.31 in 10.0 mi NNW 12.7 mph - N/A   Clear
5:14 AM -11.2 °F -31.1 °F -18.4 °F 70% 30.32 in 10.0 mi NNW 11.5 mph - N/A   Clear
5:33 AM -11.2 °F -31.1 °F -18.4 °F 70% 30.33 in 10.0 mi NW 11.5 mph - N/A   Clear
5:53 AM -9.4 °F -28.9 °F -18.4 °F 65% 30.34 in 10.0 mi NNW 11.5 mph - N/A   Clear
6:13 AM -11.2 °F -32.9 °F -20.2 °F 64% 30.35 in 10.0 mi NNW 13.8 mph - N/A   Clear
6:33 AM -11.2 °F -32.1 °F -20.2 °F 64% 30.36 in 10.0 mi NNW 12.7 mph - N/A   Clear
6:54 AM -11.2 °F -32.1 °F -20.2 °F 64% 30.36 in 10.0 mi NW 12.7 mph - N/A   Clear
7:13 AM -11.2 °F -32.1 °F -20.2 °F 64% 30.37 in 10.0 mi NNW 12.7 mph - N/A   Clear
7:33 AM -11.2 °F -33.7 °F -20.2 °F 64% 30.39 in 10.0 mi NW 15.0 mph - N/A   Clear
7:53 AM -11.2 °F -34.4 °F -20.2 °F 64% 30.40 in 10.0 mi NW 16.1 mph - N/A   Clear
8:13 AM -11.2 °F -34.4 °F -20.2 °F 64% 30.40 in 10.0 mi NNW 16.1 mph - N/A   Clear
8:34 AM -11.2 °F -32.9 °F -20.2 °F 64% 30.40 in 10.0 mi NNW 13.8 mph - N/A   Clear
8:53 AM -9.4 °F -30.6 °F -20.2 °F 59% 30.40 in 10.0 mi NNW 13.8 mph - N/A   Clear
9:13 AM -9.4 °F -32.1 °F -22.0 °F 54% 30.40 in 10.0 mi NNW 16.1 mph - N/A   Clear
9:33 AM -9.4 °F -30.6 °F -23.8 °F 49% 30.43 in 10.0 mi NNW 13.8 mph - N/A   Scattered Clouds
9:53 AM -9.4 °F -29.8 °F -20.2 °F 59% 30.43 in 10.0 mi NW 12.7 mph - N/A   Scattered Clouds
10:14 AM -9.4 °F -29.8 °F -22.0 °F 54% 30.45 in 10.0 mi WNW 12.7 mph - N/A   Clear
10:33 AM -9.4 °F -31.4 °F -22.0 °F 54% 30.45 in 10.0 mi WNW 15.0 mph - N/A   Clear
10:53 AM -7.6 °F -28.3 °F -22.0 °F 50% 30.45 in 10.0 mi NW 13.8 mph 18.4 mph N/A   Clear
11:14 AM -7.6 °F -27.5 °F -20.2 °F 54% 30.46 in 10.0 mi NW 12.7 mph - N/A   Clear
11:33 AM -7.6 °F -27.5 °F -22.0 °F 50% 30.47 in 10.0 mi NW 12.7 mph - N/A   Clear
11:53 AM -7.6 °F -25.7 °F -22.0 °F 50% 30.47 in 10.0 mi NW 10.4 mph - N/A   Clear
12:13 PM -7.6 °F -27.5 °F -20.2 °F 54% 30.47 in 10.0 mi WNW 12.7 mph - N/A   Clear
12:33 PM -7.6 °F -26.6 °F -20.2 °F 54% 30.47 in 10.0 mi NW 11.5 mph - N/A   Clear
12:54 PM -7.6 °F -27.5 °F -20.2 °F 54% 30.46 in 10.0 mi NW 12.7 mph 20.7 mph N/A   Clear
1:13 PM -7.6 °F -30.5 °F -20.2 °F 54% 30.45 in 10.0 mi NW 17.3 mph - N/A   Clear
1:34 PM -7.6 °F -28.3 °F -18.4 °F 59% 30.44 in 10.0 mi NW 13.8 mph - N/A   Clear
1:53 PM -7.6 °F -29.1 °F -18.4 °F 59% 30.44 in 10.0 mi NW 15.0 mph 20.7 mph N/A   Clear
2:13 PM -7.6 °F -30.5 °F -18.4 °F 59% 30.43 in 10.0 mi NW 17.3 mph 20.7 mph N/A   Clear
2:34 PM -7.6 °F -30.5 °F -18.4 °F 59% 30.43 in 10.0 mi WNW 17.3 mph 21.9 mph N/A   Clear
2:53 PM -7.6 °F -30.5 °F -18.4 °F 59% 30.45 in 10.0 mi WNW 17.3 mph - N/A   Clear
3:13 PM -7.6 °F -31.7 °F -18.4 °F 59% 30.44 in 10.0 mi WNW 19.6 mph - N/A   Clear
3:33 PM -7.6 °F -30.5 °F -18.4 °F 59% 30.45 in 10.0 mi WNW 17.3 mph 21.9 mph N/A   Clear
3:53 PM -7.6 °F -29.8 °F -18.4 °F 59% 30.45 in 10.0 mi NW 16.1 mph - N/A   Clear
4:14 PM -9.4 °F -32.8 °F -20.2 °F 59% 30.46 in 10.0 mi WNW 17.3 mph - N/A   Clear
4:33 PM -9.4 °F -30.6 °F -20.2 °F 59% 30.44 in 10.0 mi NW 13.8 mph - N/A   Clear
4:53 PM -9.4 °F -31.4 °F -20.2 °F 59% 30.46 in 10.0 mi NW 15.0 mph 19.6 mph N/A   Clear
5:14 PM -9.4 °F -31.4 °F -20.2 °F 59% 30.45 in 10.0 mi NW 15.0 mph - N/A   Clear
5:33 PM -9.4 °F -32.1 °F -20.2 °F 59% 30.46 in 10.0 mi WNW 16.1 mph - N/A   Clear
5:53 PM -11.2 °F -33.7 °F -20.2 °F 64% 30.48 in 10.0 mi WNW 15.0 mph - N/A   Clear
5:59 PM -11.2 °F -33.7 °F -20.2 °F 64% 30.47 in 10.0 mi WNW 15.0 mph - N/A   Scattered Clouds
6:33 PM -11.2 °F -32.9 °F -20.2 °F 64% 30.48 in 10.0 mi WNW 13.8 mph - N/A   Scattered Clouds
6:53 PM -11.2 °F -33.7 °F -20.2 °F 64% 30.49 in 10.0 mi WNW 15.0 mph - N/A   Clear
7:13 PM -13.0 °F -36.0 °F -20.2 °F 70% 30.49 in 10.0 mi WNW 15.0 mph - N/A   Clear
7:33 PM -13.0 °F -35.2 °F -20.2 °F 70% 30.49 in 10.0 mi WNW 13.8 mph - N/A   Clear
7:54 PM -13.0 °F -32.4 °F -20.2 °F 70% 30.49 in 10.0 mi WNW 10.4 mph - N/A   Clear
8:13 PM -13.0 °F -32.4 °F -20.2 °F 70% 30.49 in 10.0 mi WNW 10.4 mph - N/A   Clear
8:33 PM -13.0 °F -34.3 °F -20.2 °F 70% 30.49 in 10.0 mi WNW 12.7 mph - N/A   Clear
8:53 PM -13.0 °F -32.4 °F -20.2 °F 70% 30.49 in 10.0 mi NW 10.4 mph - N/A   Clear
9:13 PM -14.8 °F -34.6 °F -22.0 °F 70% 30.50 in 10.0 mi NW 10.4 mph - N/A   Clear
9:34 PM -14.8 °F -35.6 °F -23.8 °F 64% 30.51 in 10.0 mi NW 11.5 mph - N/A   Clear
9:53 PM -14.8 °F -33.5 °F -23.8 °F 64% 30.52 in 10.0 mi WNW 9.2 mph - N/A   Clear
10:13 PM -16.6 °F -36.8 °F -23.8 °F 70% 30.52 in 10.0 mi WNW 10.4 mph - N/A   Clear
10:34 PM -16.6 °F -35.7 °F -23.8 °F 70% 30.52 in 10.0 mi WNW 9.2 mph - N/A   Clear
10:53 PM -16.6 °F -34.4 °F -23.8 °F 70% 30.51 in 10.0 mi WNW 8.1 mph - N/A   Clear
11:14 PM -16.6 °F -36.8 °F -23.8 °F 70% 30.52 in 10.0 mi WNW 10.4 mph - N/A   Clear
11:33 PM -16.6 °F -36.8 °F -23.8 °F 70% 30.52 in 10.0 mi WNW 10.4 mph - N/A   Clear
11:53 PM -14.8 °F -34.6 °F -23.8 °F 64% 30.51 in 10.0 mi WNW 10.4 mph - N/A   Clear